Skip Navigation LinksHome page > Weather > Current weather Skip Navigation Links

Current Weather

New Tokyo International (Narita), Tokyo

For information only: do not use for flight planning or navigation.
Latest weather
Observation time Wednesday, April 1, 2015 1:30 AM JST
Local time Wednesday, April 1, 2015 1:59 AM JST
Flight conditions Visual Meteorological Conditions
Winds
Wind direction South-Southeast (160°)
Wind speed 3 mph
Visibility 6.2 mi.
Sky condition
Ceiling unlimited
Sky clear
Temperature 50°F
Dewpoint 46°F
Altimeter 29.91 in.Hg
Derived measurements
Relative humidity 87%
Wind chill 49°F
Density altitude -292 ft.
Remarks
Ceiling and visibility OK.
No significant changes expected in the next two hours.
METAR RJAA 311630Z 16003KT CAVOK 10/08 Q1013 NOSIG RMK A2992

Settings

Location code

InnerDrive.Weather 4.0.5567.0 Release CLR 4.0.30319.34014
Copyright ©2015 Inner Drive Technology. All rights reserved. Portions Copyright ©1986-2015 David Braverman.

Find weather

Site navigation


Skip Navigation Links

Place info

Page info

PayPal - The safer, easier way to pay online!

Return home.

Copyright ©2015 Inner Drive Technology. Purveyors of fine, hand-crafted computer software. Page printed 2015-03-31T16:59:29 UTC.